Time;durP1;ratioP1;P1;durP2;ratioP2;P2;SDS_P1;SDS_P2;PMS_P1;PMS_P2;Temp;Humidity;BMP_temperature;BMP_pressure;BME280_temperature;BME280_humidity;BME280_pressure;Samples;Min_cycle;Max_cycle;Signal;HPM_P1;HPM_P2
2021/05/25 00:00:32;;;;;;;3.25;1.25;;;10.50;99.90;;;;;;12127020;28;20786;-82
2021/05/25 00:06:34;;;;;;;2.30;1.10;;;10.40;99.90;;;;;;12120791;28;20175;-81
2021/05/25 00:12:36;;;;;;;3.10;1.08;;;10.40;99.90;;;;;;12129109;28;20440;-82
2021/05/25 00:18:39;;;;;;;3.28;1.02;;;10.40;99.90;;;;;;12119677;28;20069;-83
2021/05/25 00:24:42;;;;;;;2.83;0.93;;;10.40;99.90;;;;;;12117117;28;20053;-80
2021/05/25 00:30:43;;;;;;;2.10;1.00;;;10.40;99.90;;;;;;12140602;28;20128;-81
2021/05/25 00:36:45;;;;;;;2.67;1.00;;;10.40;99.90;;;;;;12122180;28;20264;-80
2021/05/25 00:42:47;;;;;;;3.58;1.20;;;10.40;99.90;;;;;;12104919;28;20074;-81
2021/05/25 00:48:49;;;;;;;2.63;1.15;;;10.50;99.90;;;;;;12131461;28;20077;-82
2021/05/25 00:54:51;;;;;;;2.47;1.10;;;10.30;99.90;;;;;;12146795;28;20586;-81
2021/05/25 01:00:53;;;;;;;5.15;1.23;;;10.20;99.90;;;;;;12145168;28;20381;-81
2021/05/25 01:06:54;;;;;;;2.22;1.30;;;10.10;99.90;;;;;;12147884;28;20081;-82
2021/05/25 01:13:01;;;;;;;4.80;1.20;;;9.90;99.90;;;;;;12111503;28;20055;-81
2021/05/25 01:19:03;;;;;;;3.20;0.77;;;10.00;99.90;;;;;;12138430;28;20108;-80
2021/05/25 01:25:13;;;;;;;2.42;1.05;;;10.00;99.90;;;;;;12142026;28;20561;-81
2021/05/25 01:31:16;;;;;;;2.45;1.17;;;10.00;99.90;;;;;;12128770;28;20661;-81
2021/05/25 01:37:22;;;;;;;2.90;1.08;;;10.00;99.90;;;;;;12131232;28;20061;-81
2021/05/25 01:43:24;;;;;;;4.10;1.23;;;9.90;99.90;;;;;;12123972;28;20136;-81
2021/05/25 01:49:26;;;;;;;2.58;1.30;;;9.80;99.90;;;;;;12130110;28;20056;-81
2021/05/25 01:55:39;;;;;;;2.92;1.10;;;9.70;99.90;;;;;;12145811;28;20064;-81
2021/05/25 02:01:41;;;;;;;2.63;1.00;;;9.80;99.90;;;;;;12127885;28;20461;-81
2021/05/25 02:07:51;;;;;;;1.42;0.90;;;9.80;99.90;;;;;;12148209;28;20549;-81
2021/05/25 02:13:53;;;;;;;2.00;1.02;;;9.70;99.90;;;;;;12155782;28;20611;-81
2021/05/25 02:19:55;;;;;;;1.60;0.90;;;9.70;99.90;;;;;;12145468;28;20075;-81
2021/05/25 02:25:57;;;;;;;3.35;1.20;;;9.70;99.90;;;;;;12152275;28;20202;-81
2021/05/25 02:31:59;;;;;;;1.67;0.98;;;9.60;99.90;;;;;;12128987;28;20114;-82
2021/05/25 02:38:01;;;;;;;2.40;1.05;;;9.50;99.90;;;;;;12131223;28;20104;-81
2021/05/25 02:44:04;;;;;;;3.05;1.30;;;9.40;99.90;;;;;;12162445;28;20136;-81
2021/05/25 02:50:07;;;;;;;1.48;0.80;;;9.50;99.90;;;;;;12140316;28;20138;-81
2021/05/25 02:56:09;;;;;;;4.63;1.30;;;9.50;99.90;;;;;;12133456;28;20068;-81
2021/05/25 03:02:11;;;;;;;2.03;0.90;;;9.50;99.90;;;;;;12139312;28;20177;-81
2021/05/25 03:08:15;;;;;;;1.55;0.70;;;9.50;99.90;;;;;;12145649;28;20059;-82
2021/05/25 03:14:17;;;;;;;;;;;9.40;99.90;;;;;;12136869;28;20091;-81
2021/05/25 03:20:19;;;;;;;1.35;0.70;;;9.40;99.90;;;;;;12145560;28;20355;-81
2021/05/25 03:26:24;;;;;;;2.50;0.82;;;9.50;99.90;;;;;;12130795;28;20060;-80
2021/05/25 03:32:26;;;;;;;2.08;0.95;;;9.40;99.90;;;;;;12116803;28;20068;-82
2021/05/25 03:38:28;;;;;;;2.97;0.80;;;9.30;99.90;;;;;;12146659;28;20080;-81
2021/05/25 03:44:30;;;;;;;2.42;0.80;;;9.30;99.90;;;;;;12146427;28;20114;-80
2021/05/25 03:50:31;;;;;;;4.30;1.10;;;9.00;99.90;;;;;;12134022;28;21013;-79
2021/05/25 03:56:46;;;;;;;2.05;1.10;;;8.90;99.90;;;;;;12132639;28;20061;-79
2021/05/25 04:02:48;;;;;;;3.92;0.95;;;8.90;99.90;;;;;;12138190;28;20134;-82
2021/05/25 04:08:50;;;;;;;2.70;0.90;;;8.80;99.90;;;;;;12119083;28;20053;-80
2021/05/25 04:14:51;;;;;;;3.63;1.08;;;8.80;99.90;;;;;;12129836;28;20080;-81
2021/05/25 04:20:53;;;;;;;4.43;0.90;;;8.90;99.90;;;;;;12119503;28;20056;-81
2021/05/25 04:26:55;;;;;;;6.10;1.10;;;9.10;99.90;;;;;;12129503;28;20149;-81
2021/05/25 04:32:57;;;;;;;2.72;1.00;;;9.10;99.90;;;;;;12124756;28;20038;-82
2021/05/25 04:38:59;;;;;;;1.90;0.93;;;9.10;99.90;;;;;;12132037;28;20165;-81
2021/05/25 04:45:02;;;;;;;1.52;0.77;;;9.10;99.90;;;;;;12133098;28;20064;-81
2021/05/25 04:51:04;;;;;;;2.72;1.15;;;9.20;99.90;;;;;;12137102;28;20035;-81
2021/05/25 04:57:06;;;;;;;4.50;1.15;;;9.10;99.90;;;;;;12135837;28;20812;-81
2021/05/25 05:03:08;;;;;;;3.72;1.30;;;9.20;99.90;;;;;;12137244;28;20093;-80
2021/05/25 05:09:11;;;;;;;2.72;1.17;;;9.20;99.90;;;;;;12137875;28;20576;-82
2021/05/25 05:15:13;;;;;;;4.28;1.33;;;9.30;99.90;;;;;;12131479;28;20057;-81
2021/05/25 05:21:15;;;;;;;3.83;1.42;;;9.40;99.90;;;;;;12122308;28;20233;-81
2021/05/25 05:27:17;;;;;;;4.75;1.60;;;9.70;99.90;;;;;;12131063;28;20460;-81
2021/05/25 05:33:19;;;;;;;3.22;1.33;;;10.00;99.90;;;;;;12129126;28;20125;-81
2021/05/25 05:39:21;;;;;;;3.20;1.73;;;9.90;99.90;;;;;;12143249;28;20074;-82
2021/05/25 05:45:23;;;;;;;6.78;2.47;;;9.70;99.90;;;;;;12142567;28;20157;-81
2021/05/25 05:51:25;;;;;;;6.60;2.00;;;9.60;99.90;;;;;;12132889;28;20060;-82
2021/05/25 05:57:31;;;;;;;5.03;1.70;;;9.80;99.90;;;;;;12147091;28;20081;-81
2021/05/25 06:03:33;;;;;;;5.68;1.42;;;9.50;99.90;;;;;;12132937;28;20382;-82
2021/05/25 06:09:37;;;;;;;3.90;1.20;;;9.50;99.90;;;;;;12133801;28;20067;-81
2021/05/25 06:15:39;;;;;;;4.47;1.27;;;9.60;99.90;;;;;;12133719;28;20077;-80
2021/05/25 06:21:41;;;;;;;2.33;1.00;;;9.80;99.90;;;;;;12141980;28;20081;-81
2021/05/25 06:27:44;;;;;;;3.80;0.90;;;9.70;99.90;;;;;;12144013;28;21004;-80
2021/05/25 06:33:45;;;;;;;2.97;1.00;;;9.60;99.90;;;;;;12132746;28;20057;-80
2021/05/25 06:39:47;;;;;;;4.72;1.00;;;9.70;99.90;;;;;;12130178;28;20053;-81
2021/05/25 06:45:49;;;;;;;3.47;0.70;;;9.90;99.90;;;;;;12142575;28;20049;-80
2021/05/25 06:51:51;;;;;;;2.97;1.00;;;9.80;99.90;;;;;;12133210;28;20077;-79
2021/05/25 06:57:53;;;;;;;2.95;0.90;;;10.00;99.90;;;;;;12144929;28;20172;-81
2021/05/25 07:03:55;;;;;;;2.30;0.70;;;10.20;99.90;;;;;;12146235;28;20053;-80
2021/05/25 07:09:56;;;;;;;2.63;0.80;;;10.10;99.90;;;;;;12109654;28;20308;-80
2021/05/25 07:15:58;;;;;;;2.45;0.68;;;10.20;99.90;;;;;;12129751;28;20242;-80
2021/05/25 07:22:01;;;;;;;3.17;0.70;;;10.10;99.90;;;;;;12135452;28;20111;-81
2021/05/25 07:28:03;;;;;;;2.97;0.80;;;10.10;99.90;;;;;;12140790;28;20485;-80
2021/05/25 07:34:05;;;;;;;1.35;0.50;;;10.00;99.90;;;;;;12143839;28;20163;-81
2021/05/25 07:40:09;;;;;;;2.47;0.70;;;9.90;99.90;;;;;;12135572;28;20056;-82
2021/05/25 07:46:11;;;;;;;1.90;0.65;;;9.70;99.90;;;;;;12128862;28;20718;-81
2021/05/25 07:52:17;;;;;;;3.60;0.65;;;9.60;99.90;;;;;;12145915;28;20137;-80
2021/05/25 07:58:19;;;;;;;0.93;0.40;;;9.60;99.90;;;;;;12161435;28;20057;-82
2021/05/25 08:04:21;;;;;;;1.33;0.40;;;10.00;99.90;;;;;;12141686;28;20180;-83
2021/05/25 08:10:23;;;;;;;0.77;0.40;;;10.10;99.90;;;;;;12131974;28;20053;-81
2021/05/25 08:16:29;;;;;;;1.52;0.80;;;10.70;99.90;;;;;;12137374;28;20083;-82
2021/05/25 08:22:31;;;;;;;1.45;0.70;;;11.00;99.90;;;;;;12135115;28;20677;-81
2021/05/25 08:28:33;;;;;;;1.85;0.60;;;11.40;99.90;;;;;;12135378;28;20522;-81
2021/05/25 08:34:35;;;;;;;4.32;0.80;;;10.80;99.90;;;;;;12126077;28;20042;-81
2021/05/25 08:40:37;;;;;;;1.88;0.60;;;10.50;99.90;;;;;;12128691;28;20113;-82
2021/05/25 08:46:46;;;;;;;1.38;0.60;;;10.90;99.90;;;;;;12136850;28;20096;-81
2021/05/25 08:52:48;;;;;;;1.70;0.60;;;11.30;99.90;;;;;;12140115;28;20466;-82
2021/05/25 08:58:50;;;;;;;0.93;0.47;;;11.30;99.90;;;;;;12157586;28;20131;-82
2021/05/25 09:05:07;;;;;;;1.00;0.55;;;11.60;99.90;;;;;;12148221;28;21001;-82
2021/05/25 09:11:10;;;;;;;4.35;0.80;;;11.50;99.90;;;;;;12134986;28;20263;-83
2021/05/25 09:17:25;;;;;;;1.98;0.90;;;12.00;99.90;;;;;;12137006;28;20068;-81
2021/05/25 09:23:38;;;;;;;2.75;1.27;;;12.00;99.90;;;;;;12127851;28;20049;-81
2021/05/25 09:29:48;;;;;;;6.90;2.13;;;12.50;99.90;;;;;;12132101;28;20127;-81
2021/05/25 09:35:52;;;;;;;6.70;1.77;;;12.70;99.90;;;;;;12129159;28;20057;-82
2021/05/25 09:42:02;;;;;;;3.55;1.70;;;12.50;99.90;;;;;;12126301;28;20756;-82
2021/05/25 09:48:04;;;;;;;5.78;2.30;;;13.10;99.90;;;;;;12144040;28;20108;-81
2021/05/25 09:54:18;;;;;;;3.10;1.63;;;13.20;99.90;;;;;;12114201;28;20131;-81
2021/05/25 10:00:36;;;;;;;3.22;1.70;;;13.10;99.90;;;;;;12135815;28;20054;-82
2021/05/25 10:06:40;;;;;;;2.20;0.65;;;12.20;99.90;;;;;;12134591;28;20064;-82
2021/05/25 10:12:43;;;;;;;1.42;0.60;;;13.10;99.90;;;;;;12138583;28;20435;-81
2021/05/25 10:24:47;;;;;;;2.00;0.80;;;13.70;99.90;;;;;;12124387;28;20600;-81
2021/05/25 10:30:51;;;;;;;3.10;1.00;;;13.00;99.90;;;;;;12144402;28;20045;-82
2021/05/25 10:36:54;;;;;;;;;;;11.10;99.90;;;;;;12149854;28;20064;-83
2021/05/25 10:43:34;;;;;;;1.08;0.70;;;9.30;99.90;;;;;;12143524;28;20394;-83
2021/05/25 10:50:11;;;;;;;1.42;1.05;;;9.20;99.90;;;;;;12137006;28;20053;-83
2021/05/25 10:56:26;;;;;;;1.55;1.00;;;9.20;99.90;;;;;;12136459;28;20061;-82
2021/05/25 11:02:48;;;;;;;1.35;1.00;;;9.50;99.90;;;;;;12155005;28;20493;-81
2021/05/25 11:08:50;;;;;;;2.00;1.10;;;10.30;99.90;;;;;;12125166;28;20112;-81
2021/05/25 11:15:15;;;;;;;2.72;1.30;;;11.00;99.90;;;;;;12153803;28;20112;-83
2021/05/25 11:27:47;;;;;;;2.58;1.27;;;12.50;99.90;;;;;;12118325;28;19963;-83
2021/05/25 11:33:51;;;;;;;2.25;1.30;;;12.90;99.90;;;;;;12123695;28;20061;-79
2021/05/25 11:39:54;;;;;;;1.63;0.95;;;13.40;99.90;;;;;;12123964;28;20049;-82
2021/05/25 11:45:56;;;;;;;2.67;1.15;;;13.50;99.90;;;;;;12122218;28;20045;-82
2021/05/25 11:51:57;;;;;;;2.30;1.30;;;13.90;99.90;;;;;;12143284;28;20563;-80
2021/05/25 11:58:00;;;;;;;2.15;1.63;;;13.40;99.90;;;;;;12117102;28;20053;-80
2021/05/25 12:04:06;;;;;;;2.13;1.33;;;13.00;99.90;;;;;;12139702;28;20792;-82
2021/05/25 12:10:10;;;;;;;2.95;1.70;;;12.80;99.90;;;;;;12131751;28;20053;-80
2021/05/25 12:16:13;;;;;;;1.88;1.40;;;13.60;99.90;;;;;;12127722;28;21390;-80
2021/05/25 12:22:15;;;;;;;2.97;1.73;;;13.60;99.90;;;;;;12138920;28;20075;-82
2021/05/25 12:28:36;;;;;;;2.25;1.45;;;14.10;99.90;;;;;;12123109;28;20049;-80
2021/05/25 12:34:37;;;;;;;5.90;2.03;;;14.70;99.90;;;;;;12095037;28;20053;-82
2021/05/25 12:40:43;;;;;;;4.72;1.77;;;14.00;99.90;;;;;;12126702;28;20052;-81
2021/05/25 12:47:02;;;;;;;3.00;1.80;;;14.00;99.90;;;;;;12152095;28;20060;-85
2021/05/25 12:53:24;;;;;;;4.03;2.35;;;13.00;99.90;;;;;;12144516;28;20053;-82
2021/05/25 12:59:25;;;;;;;3.70;2.50;;;12.10;99.90;;;;;;12127913;28;20541;-83
2021/05/25 13:05:34;;;;;;;3.88;2.47;;;12.30;99.90;;;;;;12144614;28;20103;-81
2021/05/25 13:11:36;;;;;;;3.10;0.68;;;12.10;99.90;;;;;;12141726;28;21419;-85
2021/05/25 13:17:55;;;;;;;1.27;0.60;;;11.90;99.90;;;;;;12140335;28;20056;-81
2021/05/25 13:24:03;;;;;;;3.95;0.82;;;11.00;99.90;;;;;;12139350;28;20048;-81
2021/05/25 13:30:09;;;;;;;2.15;1.05;;;10.60;99.90;;;;;;12135407;28;20053;-82
2021/05/25 13:36:11;;;;;;;2.45;1.33;;;10.40;99.90;;;;;;12145684;28;20144;-82
2021/05/25 13:42:13;;;;;;;1.95;1.08;;;10.40;99.90;;;;;;12121512;28;20050;-79
2021/05/25 13:48:15;;;;;;;3.80;1.10;;;10.40;99.90;;;;;;12131602;28;20058;-81
2021/05/25 13:54:17;;;;;;;2.20;1.13;;;10.50;99.90;;;;;;12127368;28;20061;-79
2021/05/25 14:00:35;;;;;;;1.42;0.90;;;10.90;99.90;;;;;;12140789;28;20053;-80
2021/05/25 14:06:37;;;;;;;2.03;0.80;;;11.20;99.90;;;;;;12128258;28;20397;-80
2021/05/25 14:12:39;;;;;;;1.92;0.70;;;11.30;99.90;;;;;;12133131;28;20142;-81
2021/05/25 14:18:42;;;;;;;4.40;1.33;;;11.20;99.90;;;;;;12141257;28;20054;-79
2021/05/25 14:24:44;;;;;;;2.08;0.85;;;10.90;99.90;;;;;;12140848;28;20085;-79
2021/05/25 14:30:47;;;;;;;1.55;0.90;;;10.60;99.90;;;;;;12107760;28;20112;-80
2021/05/25 14:36:49;;;;;;;3.60;0.90;;;10.30;99.90;;;;;;12129129;28;20049;-81
2021/05/25 14:42:54;;;;;;;3.47;0.93;;;10.10;99.90;;;;;;12130547;28;20128;-81
2021/05/25 14:48:56;;;;;;;1.67;0.80;;;10.00;99.90;;;;;;12108910;28;20093;-81
2021/05/25 14:55:00;;;;;;;2.53;0.60;;;10.00;99.90;;;;;;12122012;28;20461;-82
2021/05/25 15:01:09;;;;;;;3.45;0.80;;;10.00;99.90;;;;;;12123578;28;20132;-81
2021/05/25 15:07:25;;;;;;;2.47;0.80;;;9.90;99.90;;;;;;12163827;28;20396;-81
2021/05/25 15:13:27;;;;;;;2.40;0.80;;;9.70;99.90;;;;;;12141610;28;20394;-83
2021/05/25 15:19:29;;;;;;;2.65;1.10;;;9.20;99.90;;;;;;12146909;28;20054;-81
2021/05/25 15:25:32;;;;;;;2.45;1.02;;;8.80;99.90;;;;;;12135757;28;20501;-81
2021/05/25 15:31:34;;;;;;;2.92;1.10;;;8.30;99.90;;;;;;12134666;28;20193;-81
2021/05/25 15:37:36;;;;;;;3.97;1.10;;;8.20;99.90;;;;;;12142403;28;20525;-82
2021/05/25 15:43:39;;;;;;;3.67;1.00;;;8.10;99.90;;;;;;12137742;28;20529;-81
2021/05/25 15:49:41;;;;;;;1.38;0.75;;;8.30;99.90;;;;;;12119152;28;20180;-78
2021/05/25 15:55:44;;;;;;;3.42;1.52;;;8.40;99.90;;;;;;12126162;28;21611;-81
2021/05/25 16:01:46;;;;;;;2.70;1.42;;;8.50;99.90;;;;;;12123968;28;20106;-79
2021/05/25 16:07:49;;;;;;;4.40;2.00;;;8.70;99.90;;;;;;12132023;28;20064;-79
2021/05/25 16:13:51;;;;;;;3.83;1.23;;;8.70;99.90;;;;;;12132815;28;20147;-79
2021/05/25 16:19:54;;;;;;;4.45;1.38;;;8.70;99.90;;;;;;12132815;28;20588;-79
2021/05/25 16:26:00;;;;;;;3.40;1.63;;;8.70;99.90;;;;;;12124962;28;20041;-80
2021/05/25 16:32:03;;;;;;;2.60;1.30;;;8.70;99.90;;;;;;12135246;28;20102;-79
2021/05/25 16:38:05;;;;;;;4.78;1.75;;;8.70;99.90;;;;;;12123189;28;20054;-79
2021/05/25 16:44:08;;;;;;;3.22;1.42;;;8.80;99.90;;;;;;12134966;28;20057;-80
2021/05/25 16:50:13;;;;;;;3.70;1.83;;;8.80;99.90;;;;;;12136049;28;20506;-80
2021/05/25 16:56:14;;;;;;;3.75;2.03;;;8.80;99.90;;;;;;12131369;28;20107;-80
2021/05/25 17:21:21;;;;;;;7.00;3.88;;;9.00;99.90;;;;;;12133200;28;20608;-79
2021/05/25 17:27:23;;;;;;;;;;;9.10;99.90;;;;;;12153845;28;20053;-80
2021/05/25 17:33:25;;;;;;;5.38;3.97;;;9.10;99.90;;;;;;12138384;28;20527;-80
2021/05/25 17:39:27;;;;;;;7.03;3.80;;;9.20;99.90;;;;;;12137428;28;20089;-80
2021/05/25 17:45:29;;;;;;;5.70;3.78;;;9.30;99.90;;;;;;12139991;28;20052;-80
2021/05/25 17:51:30;;;;;;;4.80;3.60;;;10.00;99.90;;;;;;12130860;28;20049;-79
2021/05/25 17:57:33;;;;;;;6.28;3.28;;;9.90;99.90;;;;;;12125930;28;20156;-80
2021/05/25 18:03:36;;;;;;;4.55;2.83;;;9.70;99.90;;;;;;12119039;28;20053;-79
2021/05/25 18:09:38;;;;;;;5.00;2.47;;;9.60;99.90;;;;;;12126837;28;20135;-80
2021/05/25 18:15:40;;;;;;;4.72;1.70;;;9.50;99.90;;;;;;12128692;28;20135;-80
2021/05/25 18:21:42;;;;;;;2.95;1.70;;;9.40;99.90;;;;;;12120491;28;20675;-80
2021/05/25 18:27:44;;;;;;;2.45;1.10;;;9.20;99.90;;;;;;12127542;28;20149;-79
2021/05/25 18:45:59;;;;;;;2.65;1.30;;;8.80;99.90;;;;;;12146125;28;20049;-81
2021/05/25 18:52:01;;;;;;;5.00;1.60;;;8.80;99.90;;;;;;12129351;28;20045;-79
2021/05/25 18:58:05;;;;;;;7.28;1.77;;;8.70;99.90;;;;;;12125950;28;20729;-81
2021/05/25 19:04:07;;;;;;;6.10;2.00;;;8.70;99.90;;;;;;12146414;28;20049;-80
2021/05/25 19:10:09;;;;;;;7.13;2.33;;;8.60;99.90;;;;;;12120038;28;20079;-79
2021/05/25 19:16:11;;;;;;;7.30;2.80;;;8.60;99.90;;;;;;12125295;28;20081;-80
2021/05/25 19:22:34;;;;;;;5.60;2.75;;;8.60;99.90;;;;;;12139352;28;20721;-80
2021/05/25 19:28:36;;;;;;;3.22;2.60;;;8.60;99.90;;;;;;12133100;28;20090;-79
2021/05/25 19:34:38;;;;;;;4.93;3.30;;;8.70;99.90;;;;;;12127200;28;20974;-79
2021/05/25 19:40:41;;;;;;;7.65;3.17;;;8.60;99.90;;;;;;12132871;28;20072;-79
2021/05/25 19:46:47;;;;;;;5.07;3.25;;;8.70;99.90;;;;;;12117125;28;20057;-80
2021/05/25 19:52:50;;;;;;;4.85;3.55;;;8.60;99.90;;;;;;12124583;28;20062;-80
2021/05/25 19:58:52;;;;;;;7.10;4.38;;;8.60;99.90;;;;;;12136743;28;20785;-80
2021/05/25 20:04:54;;;;;;;7.53;4.65;;;8.60;99.90;;;;;;12139866;28;20085;-82
2021/05/25 20:10:56;;;;;;;7.93;5.15;;;8.60;99.90;;;;;;12125310;28;20049;-81
2021/05/25 20:16:58;;;;;;;9.05;6.07;;;8.70;99.90;;;;;;12132872;28;20463;-81
2021/05/25 20:23:00;;;;;;;8.52;6.47;;;8.70;99.90;;;;;;12129067;28;20651;-83
2021/05/25 20:29:02;;;;;;;10.82;7.10;;;8.80;99.90;;;;;;12137573;28;20123;-81
2021/05/25 20:41:25;;;;;;;12.75;9.43;;;8.80;99.90;;;;;;12147369;28;20100;-81
2021/05/25 20:47:27;;;;;;;12.07;10.02;;;8.80;99.90;;;;;;12127900;28;20554;-80
2021/05/25 20:53:29;;;;;;;13.73;10.00;;;8.80;99.90;;;;;;12129773;28;20066;-81
2021/05/25 20:59:31;;;;;;;12.27;10.85;;;8.80;99.90;;;;;;12116710;28;20127;-79
2021/05/25 21:05:33;;;;;;;13.18;11.77;;;8.80;99.90;;;;;;12124747;28;20503;-80
2021/05/25 21:11:35;;;;;;;13.40;11.98;;;8.80;99.90;;;;;;12097337;28;20052;-80
2021/05/25 21:17:38;;;;;;;13.40;11.57;;;8.80;99.90;;;;;;12134113;28;20059;-79
2021/05/25 21:23:39;;;;;;;13.23;11.82;;;8.80;99.90;;;;;;12128128;28;20138;-80
2021/05/25 21:29:41;;;;;;;17.52;14.85;;;8.80;99.90;;;;;;12124516;28;20169;-80
2021/05/25 21:35:43;;;;;;;19.67;15.90;;;8.80;99.90;;;;;;12119073;28;20056;-79
2021/05/25 21:41:45;;;;;;;20.42;16.08;;;8.80;99.90;;;;;;12115834;28;20049;-80
2021/05/25 21:47:47;;;;;;;19.85;16.58;;;8.70;99.90;;;;;;12140146;28;20764;-79
2021/05/25 21:53:49;;;;;;;21.90;16.95;;;8.80;99.90;;;;;;12135184;28;20505;-81
2021/05/25 21:59:50;;;;;;;23.75;16.92;;;8.80;99.90;;;;;;12132475;28;20561;-79
2021/05/25 22:05:52;;;;;;;19.77;17.08;;;8.80;99.90;;;;;;12131248;28;20476;-81
2021/05/25 22:11:54;;;;;;;20.65;17.10;;;8.90;99.90;;;;;;12114904;28;20095;-80
2021/05/25 22:17:56;;;;;;;19.23;16.33;;;8.90;99.90;;;;;;12147376;28;20056;-79
2021/05/25 22:23:58;;;;;;;19.42;16.45;;;8.90;99.90;;;;;;12123862;28;20050;-82
2021/05/25 22:30:01;;;;;;;19.27;15.43;;;8.90;99.90;;;;;;12144948;28;20053;-80
2021/05/25 22:36:03;;;;;;;20.20;14.90;;;8.90;99.90;;;;;;12130980;28;20111;-81
2021/05/25 22:42:05;;;;;;;20.05;15.10;;;8.90;99.90;;;;;;12102405;28;20430;-82
2021/05/25 22:48:07;;;;;;;21.17;16.80;;;8.90;99.90;;;;;;12143670;28;20072;-80
2021/05/25 22:54:09;;;;;;;18.02;16.08;;;8.90;99.90;;;;;;12127364;28;20118;-80
2021/05/25 23:00:15;;;;;;;18.55;13.90;;;8.80;99.90;;;;;;12126996;28;20485;-81
2021/05/25 23:06:17;;;;;;;19.60;15.30;;;8.90;99.90;;;;;;12139886;28;20559;-79
2021/05/25 23:12:18;;;;;;;16.13;12.95;;;8.90;99.90;;;;;;12111982;28;20180;-81
2021/05/25 23:18:20;;;;;;;17.75;12.75;;;8.80;99.90;;;;;;12135236;28;20080;-80
2021/05/25 23:24:22;;;;;;;14.02;11.85;;;8.90;99.90;;;;;;12127924;28;20134;-81
2021/05/25 23:30:25;;;;;;;16.83;11.70;;;8.80;99.90;;;;;;12145031;28;20693;-80
2021/05/25 23:36:27;;;;;;;12.60;10.38;;;8.80;99.90;;;;;;12122973;28;20056;-83
2021/05/25 23:42:29;;;;;;;15.80;11.48;;;8.70;99.90;;;;;;12148267;28;20051;-81
2021/05/25 23:48:31;;;;;;;16.23;11.07;;;8.70;99.90;;;;;;12149587;28;20054;-82
2021/05/25 23:54:33;;;;;;;16.50;10.93;;;8.70;99.90;;;;;;12121101;28;20064;-82
